createdAt,value
2018-01-30T00:01:49.556Z,1.93
2018-01-30T00:04:17.776Z,1.47
2018-01-30T00:06:45.218Z,1.23
2018-01-30T00:09:12.688Z,1.10
2018-01-30T00:11:40.131Z,0.97
2018-01-30T00:14:08.364Z,1.00
2018-01-30T00:16:35.811Z,1.10
2018-01-30T00:19:03.271Z,0.90
2018-01-30T00:21:30.718Z,1.20
2018-01-30T00:23:58.177Z,1.00
2018-01-30T00:26:25.641Z,1.30
2018-01-30T00:28:53.094Z,1.37
2018-01-30T00:31:20.547Z,1.40
2018-01-30T00:33:48.002Z,0.87
2018-01-30T00:36:15.450Z,0.80
2018-01-30T00:38:42.918Z,1.00
2018-01-30T00:41:10.362Z,0.90
2018-01-30T00:43:37.826Z,0.87
2018-01-30T00:46:05.274Z,0.90
2018-01-30T00:48:32.744Z,1.10
2018-01-30T00:51:00.204Z,1.00
2018-01-30T00:53:27.668Z,0.87
2018-01-30T00:55:55.114Z,1.00
2018-01-30T00:58:22.570Z,1.03
2018-01-30T01:00:50.018Z,0.90
2018-01-30T01:03:17.486Z,1.10
2018-01-30T01:05:44.947Z,1.30
2018-01-30T01:08:12.518Z,1.17
2018-01-30T01:10:39.980Z,1.23
2018-01-30T01:13:07.440Z,1.90
2018-01-30T01:15:34.899Z,1.70
2018-01-30T01:18:02.353Z,1.40
2018-01-30T01:20:29.847Z,1.97
2018-01-30T01:22:57.517Z,1.80
2018-01-30T01:25:24.962Z,1.73
2018-01-30T01:27:52.432Z,2.20
2018-01-30T01:30:19.899Z,1.50
2018-01-30T01:32:47.365Z,1.60
2018-01-30T01:35:14.926Z,1.30
2018-01-30T01:37:42.370Z,1.70
2018-01-30T01:40:09.832Z,1.50
2018-01-30T01:42:37.287Z,1.90
2018-01-30T01:45:04.740Z,1.50
2018-01-30T01:47:32.202Z,1.70
2018-01-30T01:49:59.667Z,1.70
2018-01-30T01:52:27.110Z,1.43
2018-01-30T01:54:54.570Z,1.90
2018-01-30T01:57:22.028Z,1.80
2018-01-30T01:59:49.486Z,1.90
2018-01-30T02:02:16.938Z,1.90
2018-01-30T02:04:44.402Z,1.80
2018-01-30T02:07:11.867Z,1.70
2018-01-30T02:09:39.345Z,1.77
2018-01-30T02:12:06.782Z,1.57
2018-01-30T02:14:34.242Z,1.73
2018-01-30T02:17:01.695Z,1.70
2018-01-30T02:19:29.162Z,2.00
2018-01-30T02:21:56.602Z,1.80
2018-01-30T02:24:24.058Z,2.00
2018-01-30T02:26:51.503Z,1.90
2018-01-30T02:29:18.967Z,2.00
2018-01-30T02:31:46.422Z,1.97
2018-01-30T02:34:13.892Z,1.70
2018-01-30T02:36:41.338Z,1.73
2018-01-30T02:39:08.810Z,2.17
2018-01-30T02:41:36.263Z,2.20
2018-01-30T02:44:03.739Z,1.90
2018-01-30T02:46:31.195Z,2.07
2018-01-30T02:48:58.659Z,1.77
2018-01-30T02:51:26.106Z,2.00
2018-01-30T02:53:53.566Z,1.90
2018-01-30T02:56:21.026Z,1.83
2018-01-30T02:58:48.479Z,1.90
2018-01-30T03:01:15.940Z,2.10
2018-01-30T03:03:43.403Z,2.20
2018-01-30T03:06:10.846Z,2.10
2018-01-30T03:08:38.302Z,2.17
2018-01-30T03:11:05.756Z,2.07
2018-01-30T03:13:33.232Z,2.00
2018-01-30T03:16:00.687Z,2.00
2018-01-30T03:18:28.151Z,1.90
2018-01-30T03:20:55.615Z,2.00
2018-01-30T03:23:23.060Z,2.10
2018-01-30T03:25:50.527Z,1.90
2018-01-30T03:28:17.980Z,1.90
2018-01-30T03:30:45.434Z,1.90
2018-01-30T03:33:12.895Z,1.63
2018-01-30T03:35:40.360Z,1.87
2018-01-30T03:38:07.811Z,2.00
2018-01-30T03:40:35.276Z,1.73
2018-01-30T03:43:03.503Z,1.90
2018-01-30T03:45:30.966Z,2.10
2018-01-30T03:47:59.188Z,1.83
2018-01-30T03:50:27.423Z,1.80
2018-01-30T03:52:54.884Z,2.00
2018-01-30T03:55:22.347Z,2.00
2018-01-30T03:57:49.808Z,2.10
2018-01-30T04:00:17.292Z,1.70
2018-01-30T04:02:44.786Z,1.90
2018-01-30T04:05:12.236Z,1.90
2018-01-30T04:07:39.707Z,2.00
2018-01-30T04:10:07.162Z,2.00
2018-01-30T04:12:34.618Z,2.27
2018-01-30T04:15:02.079Z,2.00
2018-01-30T04:17:29.590Z,2.10
2018-01-30T04:19:56.998Z,2.10
2018-01-30T04:22:24.461Z,2.20
2018-01-30T04:24:51.914Z,2.20
2018-01-30T04:27:19.406Z,1.80
2018-01-30T04:29:46.852Z,2.27
2018-01-30T04:32:14.302Z,2.50
2018-01-30T04:34:41.763Z,2.30
2018-01-30T04:37:09.228Z,2.27
2018-01-30T04:39:36.674Z,2.23
2018-01-30T04:42:04.118Z,2.60
2018-01-30T04:44:31.574Z,2.57
2018-01-30T04:46:59.031Z,2.20
2018-01-30T04:49:26.495Z,2.40
2018-01-30T04:51:53.935Z,2.83
2018-01-30T04:54:21.394Z,2.57
2018-01-30T04:56:48.847Z,2.43
2018-01-30T04:59:16.315Z,2.50
2018-01-30T05:01:43.772Z,2.63
2018-01-30T05:04:11.235Z,2.93
2018-01-30T05:06:38.682Z,2.63
2018-01-30T05:09:06.143Z,2.80
2018-01-30T05:11:33.608Z,2.67
2018-01-30T05:14:01.063Z,2.90
2018-01-30T05:16:28.530Z,2.97
2018-01-30T05:18:55.978Z,9.50
2018-01-30T05:21:23.446Z,5.23
2018-01-30T05:23:50.904Z,3.73
2018-01-30T05:26:18.367Z,3.40
2018-01-30T05:28:45.814Z,3.07
2018-01-30T05:31:13.281Z,3.67
2018-01-30T05:33:40.736Z,4.50
2018-01-30T05:36:08.191Z,3.63
2018-01-30T05:38:35.647Z,4.60
2018-01-30T05:41:03.935Z,3.80
2018-01-30T05:43:31.378Z,3.20
2018-01-30T05:45:59.783Z,8.13
2018-01-30T05:48:27.226Z,7.23
2018-01-30T05:50:54.699Z,8.80
2018-01-30T05:53:22.155Z,10.97
2018-01-30T05:55:49.598Z,7.07
2018-01-30T05:58:17.087Z,7.60
2018-01-30T06:00:44.556Z,7.80
2018-01-30T06:03:12.276Z,5.50
2018-01-30T06:05:39.722Z,6.73
2018-01-30T06:08:07.200Z,6.20
2018-01-30T06:10:34.634Z,4.20
2018-01-30T06:13:02.095Z,4.00
2018-01-30T06:15:29.556Z,4.57
2018-01-30T06:17:57.011Z,4.20
2018-01-30T06:20:24.463Z,5.43
2018-01-30T06:22:51.932Z,4.70
2018-01-30T06:25:19.375Z,4.07
2018-01-30T06:27:46.868Z,4.47
2018-01-30T06:30:14.331Z,5.20
2018-01-30T06:32:41.779Z,6.03
2018-01-30T06:35:09.238Z,8.33
2018-01-30T06:37:36.704Z,5.77
2018-01-30T06:40:04.160Z,4.70
2018-01-30T06:42:31.622Z,4.37
2018-01-30T06:44:59.095Z,3.93
2018-01-30T06:47:26.550Z,4.00
2018-01-30T06:49:54.016Z,4.10
2018-01-30T06:52:21.473Z,4.80
2018-01-30T06:54:48.929Z,4.53
2018-01-30T06:57:16.468Z,4.47
2018-01-30T06:59:44.229Z,4.83
2018-01-30T07:02:11.687Z,6.30
2018-01-30T07:04:39.159Z,6.97
2018-01-30T07:07:06.663Z,9.67
2018-01-30T07:09:34.116Z,5.80
2018-01-30T07:12:01.600Z,7.00
2018-01-30T07:14:29.060Z,6.37
2018-01-30T07:16:56.518Z,6.40
2018-01-30T07:19:23.971Z,6.60
2018-01-30T07:21:51.450Z,8.00
2018-01-30T07:24:19.105Z,9.30
2018-01-30T07:26:46.572Z,9.03
2018-01-30T07:29:14.019Z,7.57
2018-01-30T07:31:41.482Z,8.00
2018-01-30T07:34:08.940Z,6.83
2018-01-30T07:36:36.422Z,7.27
2018-01-30T07:39:03.864Z,7.23
2018-01-30T07:41:31.322Z,7.93
2018-01-30T07:43:58.778Z,7.80
2018-01-30T07:46:26.267Z,8.10
2018-01-30T07:48:53.702Z,7.63
2018-01-30T07:51:21.164Z,7.00
2018-01-30T07:53:48.632Z,5.70
2018-01-30T07:56:16.108Z,5.00
2018-01-30T07:58:43.571Z,4.30
2018-01-30T08:01:11.039Z,3.90
2018-01-30T08:03:38.512Z,3.97
2018-01-30T08:06:05.960Z,4.00
2018-01-30T08:08:33.425Z,3.70
2018-01-30T08:11:01.029Z,3.90
2018-01-30T08:13:28.486Z,5.10
2018-01-30T08:15:55.951Z,6.63
2018-01-30T08:18:23.431Z,9.40
2018-01-30T08:20:51.654Z,18.40
2018-01-30T08:23:19.319Z,23.77
2018-01-30T08:25:46.787Z,14.87
2018-01-30T08:28:14.239Z,17.10
2018-01-30T08:30:41.756Z,27.07
2018-01-30T08:33:09.174Z,15.93
2018-01-30T08:35:36.685Z,10.07
2018-01-30T08:38:04.147Z,15.60
2018-01-30T08:40:31.619Z,9.87
2018-01-30T08:42:59.076Z,4.37
2018-01-30T08:45:26.546Z,3.63
2018-01-30T08:47:54.772Z,4.10
2018-01-30T08:50:22.237Z,4.23
2018-01-30T08:52:50.458Z,3.83
2018-01-30T08:55:17.915Z,3.10
2018-01-30T08:57:45.376Z,3.10
2018-01-30T09:00:12.847Z,3.17
2018-01-30T09:02:40.299Z,2.90
2018-01-30T09:05:07.819Z,3.60
2018-01-30T09:07:35.281Z,3.43
2018-01-30T09:10:02.739Z,3.70
2018-01-30T09:12:30.190Z,3.50
2018-01-30T09:14:57.644Z,3.10
2018-01-30T09:17:25.114Z,3.00
2018-01-30T09:19:52.648Z,3.73
2018-01-30T09:22:20.113Z,3.43
2018-01-30T09:24:47.734Z,5.57
2018-01-30T09:27:15.326Z,5.10
2018-01-30T09:29:42.770Z,4.00
2018-01-30T09:32:10.252Z,3.33
2018-01-30T09:34:37.759Z,3.20
2018-01-30T09:37:06.103Z,3.37
2018-01-30T09:39:33.580Z,3.40
2018-01-30T09:42:01.105Z,2.83
2018-01-30T09:44:28.572Z,2.40
2018-01-30T09:46:56.796Z,3.13
2018-01-30T09:49:25.120Z,4.10
2018-01-30T09:51:52.661Z,3.57
2018-01-30T09:54:20.124Z,4.33
2018-01-30T09:56:47.623Z,4.13
2018-01-30T09:59:15.172Z,2.73
2018-01-30T10:01:42.600Z,2.50
2018-01-30T10:04:10.073Z,5.27
2018-01-30T10:06:37.512Z,2.73
2018-01-30T10:09:05.107Z,2.20
2018-01-30T10:11:32.621Z,2.40
2018-01-30T10:14:00.392Z,2.40
2018-01-30T10:16:27.844Z,2.60
2018-01-30T10:18:55.307Z,2.33
2018-01-30T10:21:22.757Z,2.37
2018-01-30T10:23:50.223Z,2.50
2018-01-30T10:26:17.671Z,2.50
2018-01-30T10:28:45.120Z,2.40
2018-01-30T10:31:12.584Z,2.40
2018-01-30T10:33:40.039Z,2.93
2018-01-30T10:36:07.503Z,2.00
2018-01-30T10:38:34.960Z,2.27
2018-01-30T10:41:02.422Z,2.10
2018-01-30T10:43:29.866Z,2.50
2018-01-30T10:45:57.352Z,2.70
2018-01-30T10:48:24.799Z,2.27
2018-01-30T10:50:52.264Z,2.70
2018-01-30T10:53:19.706Z,2.30
2018-01-30T10:55:47.154Z,2.33
2018-01-30T10:58:14.612Z,2.03
2018-01-30T11:00:42.082Z,2.30
2018-01-30T11:03:09.536Z,2.17
2018-01-30T11:05:36.998Z,2.20
2018-01-30T11:08:04.460Z,2.30
2018-01-30T11:10:31.904Z,3.07
2018-01-30T11:12:59.367Z,3.33
2018-01-30T11:15:26.810Z,2.60
2018-01-30T11:17:54.270Z,2.40
2018-01-30T11:20:21.854Z,2.20
2018-01-30T11:22:49.330Z,2.63
2018-01-30T11:25:16.784Z,2.73
2018-01-30T11:27:44.241Z,2.23
2018-01-30T11:30:11.752Z,2.80
2018-01-30T11:32:39.219Z,2.63
2018-01-30T11:35:06.678Z,2.80
2018-01-30T11:37:34.158Z,2.83
2018-01-30T11:40:01.606Z,2.33
2018-01-30T11:42:29.139Z,2.60
2018-01-30T11:44:56.601Z,3.00
2018-01-30T11:47:24.115Z,2.47
2018-01-30T11:49:51.593Z,2.87
2018-01-30T11:54:46.521Z,2.80
2018-01-30T11:57:14.011Z,2.70
2018-01-30T11:59:41.486Z,2.40
2018-01-30T12:02:08.943Z,2.53
2018-01-30T12:04:36.406Z,2.87
2018-01-30T12:07:03.852Z,2.40
2018-01-30T12:09:31.320Z,3.23
2018-01-30T12:11:58.778Z,10.53
2018-01-30T12:14:26.258Z,20.70
2018-01-30T12:16:53.739Z,8.47
2018-01-30T12:19:21.227Z,13.63
2018-01-30T12:21:48.686Z,9.97
2018-01-30T12:24:16.222Z,2.87
2018-01-30T12:26:43.683Z,2.77
2018-01-30T12:29:11.133Z,2.20
2018-01-30T12:31:38.602Z,2.70
2018-01-30T12:34:06.085Z,2.30
2018-01-30T12:36:33.579Z,2.63
2018-01-30T12:39:01.028Z,2.37
2018-01-30T12:41:29.270Z,2.70
2018-01-30T12:43:56.728Z,3.03
2018-01-30T12:46:24.260Z,7.47
2018-01-30T12:48:51.715Z,4.47
2018-01-30T12:51:19.462Z,5.77
2018-01-30T12:53:47.768Z,2.60
2018-01-30T12:56:15.279Z,2.30
2018-01-30T12:58:42.743Z,3.10
2018-01-30T13:01:10.202Z,2.30
2018-01-30T13:03:37.650Z,2.83
2018-01-30T13:06:05.898Z,2.57
2018-01-30T13:08:33.354Z,2.37
2018-01-30T13:11:00.836Z,2.30
2018-01-30T13:13:28.294Z,2.40
2018-01-30T13:15:55.756Z,2.70
2018-01-30T13:18:23.259Z,2.67
2018-01-30T13:20:50.716Z,2.20
2018-01-30T13:23:18.208Z,2.70
2018-01-30T13:25:45.663Z,2.60
2018-01-30T13:28:13.136Z,2.17
2018-01-30T13:30:41.354Z,2.67
2018-01-30T13:33:08.827Z,2.07
2018-01-30T13:35:36.278Z,1.93
2018-01-30T13:38:03.812Z,2.60
2018-01-30T13:40:31.291Z,2.20
2018-01-30T13:42:58.750Z,2.30
2018-01-30T13:45:26.202Z,2.73
2018-01-30T13:47:53.659Z,2.57
2018-01-30T13:50:21.122Z,2.30
2018-01-30T13:52:48.607Z,2.50
2018-01-30T13:55:16.034Z,2.30
2018-01-30T13:57:43.499Z,2.53
2018-01-30T14:00:10.956Z,2.50
2018-01-30T14:02:38.420Z,2.27
2018-01-30T14:05:05.886Z,2.10
2018-01-30T14:07:33.344Z,2.30
2018-01-30T14:10:00.812Z,2.27
2018-01-30T14:12:28.270Z,2.23
2018-01-30T14:14:56.498Z,2.13
2018-01-30T14:17:23.981Z,2.10
2018-01-30T14:19:51.447Z,2.30
2018-01-30T14:22:18.902Z,1.90
2018-01-30T14:24:46.385Z,2.40
2018-01-30T14:27:13.861Z,2.50
2018-01-30T14:29:41.310Z,2.50
2018-01-30T14:32:08.764Z,2.30
2018-01-30T14:34:36.226Z,2.40
2018-01-30T14:37:03.693Z,2.20
2018-01-30T14:39:31.147Z,2.73
2018-01-30T14:41:58.711Z,2.70
2018-01-30T14:44:26.235Z,2.03
2018-01-30T14:46:53.695Z,2.20
2018-01-30T14:49:21.152Z,2.70
2018-01-30T14:51:48.622Z,3.10
2018-01-30T14:54:16.084Z,2.70
2018-01-30T14:56:43.559Z,2.60
2018-01-30T14:59:11.018Z,2.30
2018-01-30T15:01:38.498Z,3.50
2018-01-30T15:04:06.723Z,3.07
2018-01-30T15:06:34.985Z,3.27
2018-01-30T15:09:02.580Z,2.83
2018-01-30T15:11:30.031Z,1.90
2018-01-30T15:13:57.552Z,1.60
2018-01-30T15:16:25.019Z,9.03
2018-01-30T15:18:52.503Z,2.97
2018-01-30T15:21:19.956Z,3.03
2018-01-30T15:23:47.425Z,4.17
2018-01-30T15:26:15.012Z,3.23
2018-01-30T15:28:42.479Z,2.67
2018-01-30T15:31:09.922Z,2.30
2018-01-30T15:33:37.386Z,1.77
2018-01-30T15:36:04.849Z,3.07
2018-01-30T15:38:32.306Z,2.70
2018-01-30T15:40:59.775Z,3.23
2018-01-30T15:43:27.252Z,2.97
2018-01-30T15:45:55.462Z,4.17
2018-01-30T15:48:22.959Z,2.00
2018-01-30T15:50:50.438Z,2.40
2018-01-30T15:53:17.930Z,5.50
2018-01-30T15:55:45.398Z,2.23
2018-01-30T15:58:12.851Z,2.27
2018-01-30T16:00:40.330Z,2.10
2018-01-30T16:03:07.787Z,3.73
2018-01-30T16:05:35.253Z,2.40
2018-01-30T16:08:02.702Z,2.13
2018-01-30T16:10:30.169Z,2.53
2018-01-30T16:12:57.950Z,2.33
2018-01-30T16:15:25.424Z,2.40
2018-01-30T16:17:53.630Z,3.27
2018-01-30T16:20:21.094Z,6.23
2018-01-30T16:22:48.550Z,4.40
2018-01-30T16:25:16.016Z,5.47
2018-01-30T16:27:43.690Z,3.63
2018-01-30T16:30:11.141Z,3.23
2018-01-30T16:32:38.647Z,4.13
2018-01-30T16:35:06.055Z,3.30
2018-01-30T16:37:33.520Z,3.60
2018-01-30T16:40:01.028Z,4.10
2018-01-30T16:42:28.491Z,3.33
2018-01-30T16:44:55.946Z,2.87
2018-01-30T16:47:23.409Z,3.33
2018-01-30T16:49:50.866Z,4.43
2018-01-30T16:52:18.332Z,2.90
2018-01-30T16:54:45.798Z,3.07
2018-01-30T16:57:13.272Z,3.17
2018-01-30T16:59:40.714Z,3.60
2018-01-30T17:02:08.177Z,3.47
2018-01-30T17:04:35.652Z,5.10
2018-01-30T17:07:03.107Z,8.93
2018-01-30T17:09:30.590Z,6.10
2018-01-30T17:11:58.041Z,4.07
2018-01-30T17:14:25.502Z,3.40
2018-01-30T17:16:52.960Z,2.90
2018-01-30T17:19:20.414Z,3.00
2018-01-30T17:21:47.871Z,4.03
2018-01-30T17:24:15.330Z,3.60
2018-01-30T17:26:42.785Z,3.30
2018-01-30T17:29:10.245Z,3.20
2018-01-30T17:31:37.693Z,3.63
2018-01-30T17:34:05.223Z,4.90
2018-01-30T17:36:32.664Z,5.90
2018-01-30T17:39:00.123Z,5.97
2018-01-30T17:41:27.577Z,7.00
2018-01-30T17:43:55.048Z,8.50
2018-01-30T17:46:22.507Z,8.50
2018-01-30T17:48:49.979Z,7.97
2018-01-30T17:51:17.439Z,7.80
2018-01-30T17:53:44.902Z,7.63
2018-01-30T17:56:12.358Z,8.00
2018-01-30T17:58:39.810Z,7.47
2018-01-30T18:01:07.278Z,7.70
2018-01-30T18:03:34.792Z,8.00
2018-01-30T18:06:02.242Z,7.83
2018-01-30T18:08:29.707Z,7.33
2018-01-30T18:10:57.217Z,7.17
2018-01-30T18:13:24.687Z,8.27
2018-01-30T18:15:52.949Z,8.00
2018-01-30T18:18:20.545Z,8.83
2018-01-30T18:20:48.243Z,8.93
2018-01-30T18:23:15.706Z,10.20
2018-01-30T18:25:43.168Z,10.43
2018-01-30T18:28:10.631Z,10.40
2018-01-30T18:30:38.079Z,12.03
2018-01-30T18:33:05.534Z,12.43
2018-01-30T18:35:32.994Z,12.63
2018-01-30T18:38:00.504Z,12.57
2018-01-30T18:40:27.982Z,10.63
2018-01-30T18:42:55.437Z,10.13
2018-01-30T18:45:22.908Z,11.30
2018-01-30T18:47:50.376Z,11.00
2018-01-30T18:50:18.006Z,11.83
2018-01-30T18:52:45.470Z,16.63
2018-01-30T18:55:12.935Z,13.93
2018-01-30T18:57:40.401Z,12.33
2018-01-30T19:00:07.931Z,13.07
2018-01-30T19:02:35.389Z,13.13
2018-01-30T19:05:02.867Z,12.80
2018-01-30T19:07:30.372Z,14.53
2018-01-30T19:09:57.838Z,12.80
2018-01-30T19:12:25.302Z,13.50
2018-01-30T19:14:52.784Z,13.80
2018-01-30T19:17:20.242Z,14.77
2018-01-30T19:19:47.771Z,16.07
2018-01-30T19:22:16.028Z,16.10
2018-01-30T19:24:43.547Z,16.10
2018-01-30T19:27:11.038Z,14.97
2018-01-30T19:29:38.549Z,14.43
2018-01-30T19:32:06.004Z,15.50
2018-01-30T19:34:33.473Z,16.00
2018-01-30T19:37:00.927Z,15.67
2018-01-30T19:39:28.455Z,14.53
2018-01-30T19:41:55.911Z,14.37
2018-01-30T19:44:24.134Z,13.77
2018-01-30T19:46:51.611Z,13.97
2018-01-30T19:49:19.067Z,13.53
2018-01-30T19:51:46.597Z,13.77
2018-01-30T19:54:14.149Z,16.07
2018-01-30T19:56:42.573Z,15.50
2018-01-30T19:59:10.095Z,18.93
2018-01-30T20:01:37.600Z,17.40
2018-01-30T20:04:05.096Z,19.23
2018-01-30T20:06:32.556Z,23.50
2018-01-30T20:09:00.083Z,21.63
2018-01-30T20:11:27.534Z,16.73
2018-01-30T20:13:55.051Z,15.97
2018-01-30T20:16:23.299Z,17.33
2018-01-30T20:18:50.811Z,20.90
2018-01-30T20:21:18.280Z,21.80
2018-01-30T20:23:45.791Z,25.07
2018-01-30T20:26:13.285Z,18.37
2018-01-30T20:28:40.762Z,15.23
2018-01-30T20:31:08.283Z,15.10
2018-01-30T20:33:35.793Z,14.57
2018-01-30T20:36:04.057Z,14.37
2018-01-30T20:38:31.524Z,24.53
2018-01-30T20:40:59.050Z,16.53
2018-01-30T20:43:26.520Z,15.20
2018-01-30T20:45:54.789Z,14.67
2018-01-30T20:48:22.257Z,11.83
2018-01-30T20:50:49.775Z,13.00
2018-01-30T20:53:17.299Z,13.13
2018-01-30T20:55:44.750Z,13.13
2018-01-30T20:58:12.260Z,13.07
2018-01-30T21:00:39.709Z,12.53
2018-01-30T21:03:07.163Z,12.47
2018-01-30T21:05:34.698Z,12.43
2018-01-30T21:08:02.152Z,12.10
2018-01-30T21:10:29.619Z,12.17
2018-01-30T21:12:57.080Z,11.73
2018-01-30T21:15:24.551Z,12.40
2018-01-30T21:17:52.015Z,12.67
2018-01-30T21:20:20.362Z,13.33
2018-01-30T21:22:47.822Z,13.93
2018-01-30T21:25:15.305Z,13.60
2018-01-30T21:27:42.820Z,12.83
2018-01-30T21:30:10.293Z,12.67
2018-01-30T21:32:37.807Z,13.50
2018-01-30T21:35:06.109Z,13.17
2018-01-30T21:37:33.571Z,13.40
2018-01-30T21:40:01.121Z,12.50
2018-01-30T21:42:29.346Z,11.93
2018-01-30T21:44:56.814Z,10.90
2018-01-30T21:47:24.307Z,10.67
2018-01-30T21:49:51.800Z,11.50
2018-01-30T21:52:19.283Z,10.40
2018-01-30T21:54:46.755Z,11.20
2018-01-30T21:57:14.273Z,11.37
2018-01-30T21:59:41.824Z,10.77
2018-01-30T22:02:09.359Z,11.17
2018-01-30T22:04:36.865Z,10.30
2018-01-30T22:07:04.362Z,11.93
2018-01-30T22:09:32.651Z,11.00
2018-01-30T22:12:00.131Z,10.83
2018-01-30T22:14:27.630Z,10.70
2018-01-30T22:16:55.134Z,10.70
2018-01-30T22:19:22.597Z,11.40
2018-01-30T22:21:50.069Z,10.97
2018-01-30T22:24:17.541Z,12.17
2018-01-30T22:26:45.005Z,12.13
2018-01-30T22:29:12.458Z,12.07
2018-01-30T22:31:39.931Z,11.73
2018-01-30T22:34:07.386Z,11.77
2018-01-30T22:36:34.854Z,11.93
2018-01-30T22:39:02.327Z,11.97
2018-01-30T22:41:29.862Z,12.00
2018-01-30T22:43:57.323Z,11.67
2018-01-30T22:46:24.790Z,11.77
